createdAt,value
2019-04-21T00:00:16.698Z,13.25
2019-04-21T00:01:12.668Z,13.27
2019-04-21T00:02:18.773Z,13.22
2019-04-21T00:03:19.366Z,13.28
2019-04-21T00:04:24.859Z,13.30
2019-04-21T00:05:49.862Z,13.30
2019-04-21T00:06:31.585Z,13.25
2019-04-21T00:07:31.648Z,13.28
2019-04-21T00:09:34.667Z,13.20
2019-04-21T00:10:36.441Z,13.11
2019-04-21T00:11:37.805Z,13.19
2019-04-21T00:12:31.056Z,13.18
2019-04-21T00:13:27.704Z,13.12
2019-04-21T00:14:24.929Z,13.12
2019-04-21T00:15:20.554Z,13.11
2019-04-21T00:16:14.111Z,13.05
2019-04-21T00:17:15.635Z,13.05
2019-04-21T00:18:12.277Z,12.97
2019-04-21T00:19:17.299Z,12.93
2019-04-21T00:20:20.369Z,12.87
2019-04-21T00:21:22.271Z,12.73
2019-04-21T00:22:24.713Z,12.62
2019-04-21T00:23:29.634Z,12.61
2019-04-21T00:24:28.877Z,12.49
2019-04-21T00:25:26.470Z,12.53
2019-04-21T00:26:27.872Z,12.32
2019-04-21T00:27:28.543Z,12.35
2019-04-21T00:28:39.583Z,12.21
2019-04-21T00:29:35.406Z,12.13
2019-04-21T00:30:34.109Z,12.17
2019-04-21T00:31:32.251Z,12.17
2019-04-21T00:32:25.770Z,12.10
2019-04-21T00:33:17.566Z,12.12
2019-04-21T00:34:11.155Z,12.07
2019-04-21T00:35:16.910Z,11.99
2019-04-21T00:36:16.912Z,12.07
2019-04-21T00:37:20.677Z,12.04
2019-04-21T00:38:32.463Z,11.88
2019-04-21T00:39:36.425Z,11.81
2019-04-21T00:40:39.815Z,11.81
2019-04-21T00:41:33.833Z,11.78
2019-04-21T00:42:30.373Z,11.80
2019-04-21T00:43:28.427Z,11.81
2019-04-21T00:44:21.486Z,11.77
2019-04-21T00:45:24.942Z,11.86
2019-04-21T00:46:28.007Z,11.83
2019-04-21T00:47:30.654Z,11.83
2019-04-21T00:48:29.965Z,11.80
2019-04-21T00:49:23.262Z,11.83
2019-04-21T00:50:31.418Z,11.78
2019-04-21T00:51:39.743Z,11.86
2019-04-21T00:52:46.176Z,11.75
2019-04-21T00:53:37.107Z,11.81
2019-04-21T00:54:33.109Z,11.80
2019-04-21T00:56:35.345Z,11.78
2019-04-21T00:57:38.863Z,11.78
2019-04-21T00:58:33.261Z,11.73
2019-04-21T00:59:34.990Z,11.83
2019-04-21T01:00:34.997Z,11.77
2019-04-21T01:01:34.223Z,11.73
2019-04-21T01:02:29.721Z,11.75
2019-04-21T01:03:32.350Z,11.78
2019-04-21T01:04:30.485Z,11.83
2019-04-21T01:05:38.547Z,11.81
2019-04-21T01:06:34.088Z,11.83
2019-04-21T01:07:32.007Z,11.80
2019-04-21T01:08:32.213Z,11.78
2019-04-21T01:09:29.069Z,11.80
2019-04-21T01:10:20.965Z,11.91
2019-04-21T01:11:40.233Z,11.78
2019-04-21T01:12:33.113Z,11.81
2019-04-21T01:13:34.496Z,11.81
2019-04-21T01:14:35.846Z,11.84
2019-04-21T01:15:37.337Z,11.81
2019-04-21T01:16:34.485Z,11.80
2019-04-21T01:17:30.843Z,11.87
2019-04-21T01:18:32.494Z,11.80
2019-04-21T01:19:25.145Z,11.78
2019-04-21T01:20:16.831Z,11.68
2019-04-21T01:21:14.324Z,11.55
2019-04-21T01:22:08.658Z,11.52
2019-04-21T01:23:08.622Z,11.43
2019-04-21T01:24:15.917Z,11.45
2019-04-21T01:25:19.281Z,11.33
2019-04-21T01:26:26.319Z,11.40
2019-04-21T01:27:21.410Z,11.47
2019-04-21T01:28:27.475Z,11.43
2019-04-21T01:29:29.001Z,11.43
2019-04-21T01:30:29.679Z,11.52
2019-04-21T01:31:22.937Z,11.44
2019-04-21T01:32:29.272Z,11.51
2019-04-21T01:33:36.119Z,11.54
2019-04-21T01:34:29.112Z,11.47
2019-04-21T01:35:25.421Z,11.51
2019-04-21T01:36:24.176Z,11.44
2019-04-21T01:37:32.951Z,11.35
2019-04-21T01:38:34.337Z,11.48
2019-04-21T01:39:34.493Z,11.48
2019-04-21T01:40:38.112Z,11.47
2019-04-21T01:41:35.542Z,11.40
2019-04-21T01:42:25.595Z,11.37
2019-04-21T01:43:27.572Z,11.18
2019-04-21T01:44:36.098Z,11.04
2019-04-21T01:45:26.484Z,11.08
2019-04-21T01:46:28.398Z,10.99
2019-04-21T01:47:24.848Z,10.93
2019-04-21T01:48:24.680Z,10.87
2019-04-21T01:49:21.987Z,10.82
2019-04-21T01:50:27.446Z,10.79
2019-04-21T01:51:20.937Z,10.64
2019-04-21T01:53:30.654Z,10.30
2019-04-21T01:54:31.713Z,10.20
2019-04-21T01:55:30.815Z,10.10
2019-04-21T01:56:25.329Z,9.98
2019-04-21T01:57:22.618Z,9.92
2019-04-21T01:58:19.408Z,9.66
2019-04-21T01:59:20.467Z,9.59
2019-04-21T02:00:18.988Z,9.46
2019-04-21T02:01:28.463Z,9.43
2019-04-21T02:02:29.292Z,9.41
2019-04-21T02:04:37.206Z,9.47
2019-04-21T02:05:32.931Z,9.55
2019-04-21T02:06:27.582Z,9.51
2019-04-21T02:07:27.392Z,9.48
2019-04-21T02:08:28.790Z,9.62
2019-04-21T02:09:27.388Z,9.56
2019-04-21T02:10:34.237Z,9.66
2019-04-21T02:11:31.256Z,9.59
2019-04-21T02:12:30.213Z,9.77
2019-04-21T02:13:23.209Z,9.82
2019-04-21T02:14:31.136Z,9.91
2019-04-21T02:15:31.227Z,9.84
2019-04-21T02:16:28.264Z,9.94
2019-04-21T02:17:40.776Z,9.87
2019-04-21T02:18:31.614Z,9.95
2019-04-21T02:19:23.598Z,9.73
2019-04-21T02:20:18.045Z,9.74
2019-04-21T02:21:21.714Z,9.65
2019-04-21T02:22:35.286Z,9.73
2019-04-21T02:23:34.388Z,9.66
2019-04-21T02:24:39.971Z,9.72
2019-04-21T02:25:25.803Z,9.59
2019-04-21T02:26:32.415Z,9.50
2019-04-21T02:27:31.735Z,9.47
2019-04-21T02:28:36.884Z,9.46
2019-04-21T02:29:37.654Z,9.43
2019-04-21T02:30:45.486Z,9.39
2019-04-21T02:31:40.466Z,9.26
2019-04-21T02:33:48.977Z,9.14
2019-04-21T02:34:40.931Z,9.03
2019-04-21T02:38:47.739Z,8.84
2019-04-21T02:39:41.128Z,8.74
2019-04-21T02:40:38.537Z,8.89
2019-04-21T02:41:43.731Z,8.97
2019-04-21T02:42:38.931Z,9.02
2019-04-21T02:43:38.854Z,8.97
2019-04-21T02:44:42.880Z,8.95
2019-04-21T02:48:39.275Z,8.85
2019-04-21T02:49:45.231Z,8.94
2019-04-21T02:54:48.058Z,8.81
2019-04-21T02:55:38.757Z,8.81
2019-04-21T02:56:48.215Z,8.88
2019-04-21T02:58:48.017Z,8.67
2019-04-21T02:59:42.259Z,8.58
2019-04-21T03:00:36.525Z,8.55
2019-04-21T03:01:41.343Z,8.49
2019-04-21T03:02:40.878Z,8.44
2019-04-21T03:03:36.487Z,8.37
2019-04-21T03:04:46.675Z,8.36
2019-04-21T03:06:59.833Z,8.18
2019-04-21T03:07:34.795Z,8.23
2019-04-21T03:08:47.477Z,8.15
2019-04-21T03:09:46.161Z,8.19
2019-04-21T03:11:28.569Z,8.18
2019-04-21T03:12:28.888Z,8.10
2019-04-21T03:13:44.607Z,8.05
2019-04-21T03:16:31.564Z,8.01
2019-04-21T03:18:46.045Z,7.98
2019-04-21T03:19:45.173Z,8.00
2019-04-21T03:20:56.833Z,7.97
2019-04-21T03:22:32.713Z,7.98
2019-04-21T03:23:52.297Z,8.06
2019-04-21T03:25:04.488Z,8.19
2019-04-21T03:25:41.745Z,8.15
2019-04-21T03:26:36.342Z,8.16
2019-04-21T03:28:37.843Z,8.19
2019-04-21T03:35:18.447Z,7.98
2019-04-21T03:36:31.554Z,8.03
2019-04-21T03:36:49.835Z,7.97
2019-04-21T03:38:37.628Z,8.03
2019-04-21T03:39:37.512Z,8.01
2019-04-21T03:41:41.806Z,7.69
2019-04-21T03:44:37.274Z,7.57
2019-04-21T03:47:50.192Z,7.38
2019-04-21T03:52:39.345Z,7.10
2019-04-21T03:53:31.493Z,7.03
2019-04-21T03:54:37.174Z,6.88
2019-04-21T03:56:53.522Z,6.97
2019-04-21T03:57:46.617Z,6.88
2019-04-21T03:58:46.886Z,6.97
2019-04-21T03:59:24.633Z,6.99
2019-04-21T04:01:36.663Z,7.00
2019-04-21T04:02:45.129Z,6.96
2019-04-21T04:05:49.503Z,7.20
2019-04-21T04:06:38.397Z,7.15
2019-04-21T04:07:44.014Z,7.28
2019-04-21T04:09:37.566Z,7.21
2019-04-21T04:10:34.797Z,7.23
2019-04-21T04:11:39.816Z,7.28
2019-04-21T04:12:35.085Z,7.33
2019-04-21T04:14:42.464Z,7.33
2019-04-21T04:15:38.233Z,7.35
2019-04-21T04:19:39.974Z,7.48
2019-04-21T04:24:50.195Z,7.10
2019-04-21T04:26:42.934Z,6.92
2019-04-21T04:27:47.276Z,6.81
2019-04-21T04:30:40.968Z,6.85
2019-04-21T04:32:42.480Z,6.69
2019-04-21T04:35:48.918Z,6.84
2019-04-21T04:40:30.746Z,6.69
2019-04-21T04:41:41.655Z,6.54
2019-04-21T04:45:40.626Z,6.42
2019-04-21T04:46:33.360Z,6.45
2019-04-21T04:48:28.421Z,6.49
2019-04-21T04:50:43.379Z,6.69
2019-04-21T04:51:43.836Z,6.70
2019-04-21T04:53:40.910Z,6.70
2019-04-21T04:54:47.514Z,6.75
2019-04-21T04:55:33.685Z,6.79
2019-04-21T04:56:31.023Z,6.88
2019-04-21T04:57:53.236Z,6.84
2019-04-21T04:58:54.605Z,6.95
2019-04-21T05:00:34.914Z,7.17
2019-04-21T05:01:57.628Z,7.29
2019-04-21T05:02:35.557Z,7.31
2019-04-21T05:03:45.190Z,7.47
2019-04-21T05:04:37.550Z,7.51
2019-04-21T05:05:48.817Z,7.57
2019-04-21T05:07:34.073Z,7.82
2019-04-21T05:08:42.276Z,7.88
2019-04-21T05:09:33.604Z,7.93
2019-04-21T05:10:38.491Z,8.08
2019-04-21T05:13:37.538Z,8.30
2019-04-21T05:14:33.761Z,8.45
2019-04-21T05:15:42.502Z,8.55
2019-04-21T05:16:41.012Z,8.64
2019-04-21T05:18:36.746Z,8.76
2019-04-21T05:19:30.543Z,8.85
2019-04-21T05:23:28.778Z,9.03
2019-04-21T05:24:20.908Z,8.99
2019-04-21T05:25:19.548Z,8.97
2019-04-21T05:26:14.962Z,9.03
2019-04-21T05:27:16.427Z,9.11
2019-04-21T05:28:12.526Z,9.11
2019-04-21T05:29:08.992Z,9.06
2019-04-21T05:30:30.670Z,9.14
2019-04-21T05:31:25.103Z,9.23
2019-04-21T05:32:17.206Z,9.29
2019-04-21T05:33:24.459Z,9.41
2019-04-21T05:34:25.171Z,9.41
2019-04-21T05:35:20.117Z,9.50
2019-04-21T05:36:18.754Z,9.47
2019-04-21T05:37:22.009Z,9.59
2019-04-21T05:38:17.462Z,9.66
2019-04-21T05:39:14.662Z,9.73
2019-04-21T05:40:15.741Z,9.80
2019-04-21T05:41:11.060Z,9.97
2019-04-21T05:42:08.852Z,10.01
2019-04-21T05:43:21.388Z,10.07
2019-04-21T05:44:27.999Z,10.16
2019-04-21T05:45:25.436Z,10.20
2019-04-21T05:46:18.446Z,10.41
2019-04-21T05:47:29.916Z,10.35
2019-04-21T05:48:22.855Z,10.41
2019-04-21T05:49:14.090Z,10.56
2019-04-21T05:50:20.501Z,10.54
2019-04-21T05:51:16.140Z,10.63
2019-04-21T05:52:14.583Z,10.71
2019-04-21T05:53:25.304Z,10.74
2019-04-21T05:54:29.652Z,10.87
2019-04-21T05:55:24.464Z,10.89
2019-04-21T05:56:22.964Z,10.89
2019-04-21T05:57:18.856Z,10.94
2019-04-21T05:58:19.375Z,11.02
2019-04-21T05:59:20.087Z,11.10
2019-04-21T06:00:32.125Z,11.23
2019-04-21T06:01:31.481Z,11.35
2019-04-21T06:03:23.522Z,11.41
2019-04-21T06:04:38.818Z,11.59
2019-04-21T06:06:26.160Z,11.37
2019-04-21T06:08:17.896Z,11.62
2019-04-21T06:09:21.247Z,11.62
2019-04-21T06:10:22.226Z,11.81
2019-04-21T06:12:23.808Z,11.94
2019-04-21T06:13:27.922Z,12.06
2019-04-21T06:14:25.157Z,12.13
2019-04-21T06:15:26.565Z,12.15
2019-04-21T06:16:25.421Z,12.24
2019-04-21T06:17:25.334Z,12.39
2019-04-21T06:18:30.187Z,12.53
2019-04-21T06:19:22.331Z,12.67
2019-04-21T06:20:21.285Z,12.87
2019-04-21T06:21:16.583Z,12.94
2019-04-21T06:22:20.938Z,13.15
2019-04-21T06:23:25.119Z,13.19
2019-04-21T06:24:26.992Z,13.22
2019-04-21T06:25:44.689Z,13.20
2019-04-21T06:27:28.013Z,13.49
2019-04-21T06:28:22.389Z,13.59
2019-04-21T06:29:24.070Z,13.54
2019-04-21T06:30:20.718Z,13.71
2019-04-21T06:31:33.739Z,13.81
2019-04-21T06:32:30.481Z,13.75
2019-04-21T06:33:20.256Z,13.89
2019-04-21T06:34:23.476Z,13.89
2019-04-21T06:38:28.594Z,14.05
2019-04-21T06:39:25.583Z,14.11
2019-04-21T06:40:30.812Z,14.11
2019-04-21T06:41:28.898Z,14.23
2019-04-21T06:42:21.184Z,14.18
2019-04-21T06:44:14.934Z,14.44
2019-04-21T06:45:20.491Z,14.51
2019-04-21T06:46:25.924Z,14.50
2019-04-21T06:47:29.998Z,14.60
2019-04-21T06:48:24.648Z,14.72
2019-04-21T06:49:17.395Z,14.79
2019-04-21T06:50:24.386Z,14.94
2019-04-21T06:51:22.537Z,15.02
2019-04-21T06:52:43.500Z,15.11
2019-04-21T06:53:20.481Z,15.18
2019-04-21T06:54:22.001Z,15.22
2019-04-21T06:55:19.899Z,15.21
2019-04-21T06:56:28.540Z,15.25
2019-04-21T06:57:21.801Z,15.37
2019-04-21T06:58:18.395Z,15.36
2019-04-21T06:59:14.536Z,15.57
2019-04-21T07:00:18.489Z,15.67
2019-04-21T07:01:26.519Z,15.68
2019-04-21T07:03:19.393Z,15.79
2019-04-21T07:05:21.774Z,15.92
2019-04-21T07:06:24.597Z,16.05
2019-04-21T07:07:17.223Z,16.16
2019-04-21T07:08:38.892Z,16.33
2019-04-21T07:09:30.095Z,16.43
2019-04-21T07:10:22.528Z,16.57
2019-04-21T07:11:14.995Z,16.57
2019-04-21T07:12:18.649Z,16.64
2019-04-21T07:13:15.389Z,16.71
2019-04-21T07:15:21.811Z,16.90
2019-04-21T07:16:19.216Z,16.87
2019-04-21T07:17:24.240Z,16.90
2019-04-21T07:18:19.192Z,17.09
2019-04-21T07:19:35.092Z,17.12
2019-04-21T07:20:18.546Z,17.26
2019-04-21T07:21:25.513Z,17.26
2019-04-21T07:22:21.452Z,17.41
2019-04-21T07:23:20.423Z,17.48
2019-04-21T07:24:21.722Z,17.44
2019-04-21T07:25:22.567Z,17.60
2019-04-21T07:26:22.258Z,17.76
2019-04-21T07:27:16.288Z,17.82
2019-04-21T07:28:17.366Z,17.90
2019-04-21T07:29:21.989Z,17.97
2019-04-21T07:30:20.861Z,17.97
2019-04-21T07:31:20.560Z,18.03
2019-04-21T07:32:19.141Z,18.15
2019-04-21T07:33:43.735Z,18.16
2019-04-21T07:34:22.666Z,18.20
2019-04-21T07:35:31.802Z,18.33
2019-04-21T07:36:28.976Z,18.45
2019-04-21T07:37:12.516Z,18.56
2019-04-21T07:38:19.557Z,18.53
2019-04-21T07:39:12.034Z,18.58
2019-04-21T07:40:16.095Z,18.73
2019-04-21T07:41:11.319Z,18.65
2019-04-21T07:42:13.471Z,18.77
2019-04-21T07:43:12.104Z,18.88
2019-04-21T07:44:10.313Z,19.08
2019-04-21T07:45:12.990Z,19.02
2019-04-21T07:46:10.169Z,19.07
2019-04-21T07:47:15.792Z,19.00
2019-04-21T07:48:14.420Z,19.16
2019-04-21T07:49:12.449Z,19.29
2019-04-21T07:50:14.886Z,19.36
2019-04-21T07:51:20.955Z,19.47
2019-04-21T07:52:18.192Z,19.64
2019-04-21T07:53:25.892Z,19.74
2019-04-21T07:54:25.113Z,19.92
2019-04-21T07:56:00.781Z,20.13
2019-04-21T07:57:15.536Z,20.39
2019-04-21T07:58:14.980Z,20.60
2019-04-21T07:59:23.907Z,20.66
2019-04-21T08:01:22.694Z,20.80
2019-04-21T08:02:18.616Z,20.87
2019-04-21T08:03:14.130Z,21.05
2019-04-21T08:04:24.457Z,21.05
2019-04-21T08:06:20.485Z,21.07
2019-04-21T08:07:21.623Z,21.20
2019-04-21T08:08:12.464Z,21.37
2019-04-21T08:09:11.908Z,21.57
2019-04-21T08:10:12.017Z,21.76
2019-04-21T08:11:09.609Z,21.95
2019-04-21T08:12:09.833Z,22.06
2019-04-21T08:13:27.353Z,22.18
2019-04-21T08:14:17.723Z,22.08
2019-04-21T08:15:23.151Z,22.28
2019-04-21T08:16:20.387Z,22.26
2019-04-21T08:17:16.404Z,22.38
2019-04-21T08:18:11.777Z,22.55
2019-04-21T08:19:15.662Z,22.63
2019-04-21T08:20:13.794Z,22.59
2019-04-21T08:21:12.219Z,22.78
2019-04-21T08:22:15.709Z,22.98
2019-04-21T08:24:14.951Z,22.90
2019-04-21T08:25:14.908Z,22.85
2019-04-21T08:26:34.514Z,22.93
2019-04-21T08:27:17.741Z,23.17
2019-04-21T08:28:08.973Z,23.43
2019-04-21T08:29:20.302Z,23.66
2019-04-21T08:30:11.816Z,23.78
2019-04-21T08:31:13.977Z,23.80
2019-04-21T08:32:21.414Z,23.74
2019-04-21T08:34:13.978Z,23.76
2019-04-21T08:35:34.582Z,23.96
2019-04-21T08:37:15.046Z,24.14
2019-04-21T08:38:13.817Z,24.23
2019-04-21T08:39:14.992Z,24.28
2019-04-21T08:40:17.731Z,24.53
2019-04-21T08:41:17.142Z,24.77
2019-04-21T08:42:10.390Z,24.89
2019-04-21T08:43:21.199Z,25.01
2019-04-21T08:44:10.698Z,25.04
2019-04-21T08:45:14.935Z,25.10
2019-04-21T08:47:15.506Z,25.26
2019-04-21T08:48:16.977Z,25.14
2019-04-21T08:49:16.743Z,25.29
2019-04-21T08:50:14.915Z,25.75
2019-04-21T08:52:21.556Z,25.93
2019-04-21T08:53:14.646Z,25.81
2019-04-21T08:54:15.175Z,25.84
2019-04-21T08:55:22.521Z,26.02
2019-04-21T08:56:16.469Z,25.91
2019-04-21T08:57:15.246Z,26.13
2019-04-21T08:59:19.015Z,26.09
2019-04-21T09:01:20.514Z,26.29
2019-04-21T09:02:16.784Z,26.56
2019-04-21T09:03:14.016Z,26.48
2019-04-21T09:04:13.403Z,26.99
2019-04-21T09:05:12.606Z,27.15
2019-04-21T09:06:17.343Z,27.17
2019-04-21T09:07:12.903Z,27.42
2019-04-21T09:08:15.299Z,27.60
2019-04-21T09:10:09.426Z,27.95
2019-04-21T09:11:11.461Z,27.95
2019-04-21T09:12:10.907Z,28.19
2019-04-21T09:13:14.909Z,28.30
2019-04-21T09:14:13.110Z,28.64
2019-04-21T09:15:13.850Z,28.75
2019-04-21T09:16:09.879Z,28.91
2019-04-21T09:17:06.581Z,28.78
2019-04-21T09:18:10.145Z,28.81
2019-04-21T09:19:11.751Z,28.81
2019-04-21T09:20:22.622Z,28.75
2019-04-21T09:21:15.988Z,29.07
2019-04-21T09:22:14.198Z,28.96
2019-04-21T09:23:13.361Z,28.96
2019-04-21T09:24:14.806Z,28.70
2019-04-21T09:25:16.287Z,28.88
2019-04-21T09:26:14.421Z,29.19
2019-04-21T09:27:09.715Z,29.59
2019-04-21T09:28:11.168Z,29.29
2019-04-21T09:29:04.391Z,29.66
2019-04-21T09:29:57.706Z,29.59
2019-04-21T09:30:57.767Z,29.79
2019-04-21T09:31:55.850Z,29.93
2019-04-21T09:32:56.140Z,29.82
2019-04-21T09:33:56.954Z,29.84
2019-04-21T09:34:52.822Z,30.28
2019-04-21T09:35:58.873Z,30.25
2019-04-21T09:37:09.924Z,30.70
2019-04-21T09:38:00.576Z,31.00
2019-04-21T09:39:00.034Z,30.87
2019-04-21T09:39:56.980Z,31.29
2019-04-21T09:40:54.435Z,31.24
2019-04-21T09:41:54.529Z,31.07
2019-04-21T09:42:59.491Z,31.31
2019-04-21T09:43:55.700Z,31.51
2019-04-21T09:44:58.015Z,31.34
2019-04-21T09:45:52.523Z,31.31
2019-04-21T09:46:56.632Z,31.42
2019-04-21T09:48:01.106Z,31.27
2019-04-21T09:48:59.017Z,32.16
2019-04-21T09:49:52.435Z,32.18
2019-04-21T09:50:52.528Z,32.21
2019-04-21T09:51:52.963Z,32.11
2019-04-21T09:52:58.268Z,32.63
2019-04-21T09:54:01.182Z,32.90
2019-04-21T09:55:03.941Z,33.02
2019-04-21T09:55:59.346Z,33.20
2019-04-21T09:56:58.561Z,32.92
2019-04-21T09:57:57.021Z,32.78
2019-04-21T09:59:03.809Z,32.78
2019-04-21T10:00:00.910Z,32.78
2019-04-21T10:01:03.262Z,33.28
2019-04-21T10:02:04.827Z,32.95
2019-04-21T10:03:00.920Z,33.07
2019-04-21T10:03:56.427Z,33.08
2019-04-21T10:04:52.744Z,33.47
2019-04-21T10:05:52.119Z,33.55
2019-04-21T10:06:52.067Z,34.06
2019-04-21T10:07:53.163Z,34.45
2019-04-21T10:08:58.552Z,34.24
2019-04-21T10:09:52.355Z,34.03
2019-04-21T10:10:51.987Z,34.70
2019-04-21T10:11:52.716Z,34.90
2019-04-21T10:12:52.032Z,35.14
2019-04-21T10:13:52.978Z,34.95
2019-04-21T10:14:51.899Z,35.27
2019-04-21T10:15:52.029Z,35.56
2019-04-21T10:16:51.849Z,35.88
2019-04-21T10:17:52.055Z,36.02
2019-04-21T10:18:52.409Z,36.14
2019-04-21T10:19:52.889Z,35.76
2019-04-21T10:20:51.780Z,36.01
2019-04-21T10:21:52.081Z,35.56
2019-04-21T10:22:53.008Z,36.24
2019-04-21T10:23:52.229Z,37.13
2019-04-21T10:24:52.185Z,37.51
2019-04-21T10:25:52.560Z,36.80
2019-04-21T10:26:51.636Z,37.06
2019-04-21T10:27:52.768Z,36.36
2019-04-21T10:28:52.941Z,36.49
2019-04-21T10:29:52.267Z,36.61
2019-04-21T10:30:52.830Z,36.36
2019-04-21T10:31:52.434Z,36.25
2019-04-21T10:32:52.435Z,35.70
2019-04-21T10:33:52.586Z,36.04
2019-04-21T10:34:52.755Z,35.92
2019-04-21T10:35:51.448Z,36.01
2019-04-21T10:36:51.426Z,35.00
2019-04-21T10:38:03.471Z,35.79
2019-04-21T10:38:53.564Z,35.14
2019-04-21T10:39:51.599Z,34.71
2019-04-21T10:40:51.724Z,34.81
2019-04-21T10:41:51.322Z,34.62
2019-04-21T10:42:52.286Z,35.63
2019-04-21T10:43:51.411Z,35.78
2019-04-21T10:44:52.625Z,36.01
2019-04-21T10:45:51.238Z,36.45
2019-04-21T10:46:52.574Z,37.13
2019-04-21T10:47:52.684Z,36.68
2019-04-21T10:48:51.173Z,37.08
2019-04-21T10:49:51.172Z,37.44
2019-04-21T10:50:51.135Z,37.70
2019-04-21T10:51:51.112Z,37.71
2019-04-21T10:52:51.110Z,37.10
2019-04-21T10:53:53.891Z,37.59
2019-04-21T10:55:11.273Z,37.78
2019-04-21T10:56:04.154Z,37.67
2019-04-21T10:56:52.472Z,37.99
2019-04-21T10:57:50.988Z,38.46
2019-04-21T10:58:52.102Z,38.45
2019-04-21T10:59:53.851Z,39.00
2019-04-21T11:00:51.595Z,39.21
2019-04-21T11:01:50.933Z,38.79
2019-04-21T11:02:50.886Z,38.38
2019-04-21T11:03:50.885Z,39.33
2019-04-21T11:04:51.094Z,38.57
2019-04-21T11:05:50.827Z,38.71
2019-04-21T11:06:50.828Z,39.60
2019-04-21T11:08:01.394Z,38.79
2019-04-21T11:08:54.188Z,39.00
2019-04-21T11:09:51.875Z,39.80
2019-04-21T11:10:51.876Z,40.47
2019-04-21T11:11:52.078Z,40.31
2019-04-21T11:12:50.888Z,39.92
2019-04-21T11:13:50.756Z,38.84
2019-04-21T11:14:51.461Z,38.97
2019-04-21T11:15:50.879Z,39.41
2019-04-21T11:16:52.617Z,37.64
2019-04-21T11:17:50.678Z,38.95
2019-04-21T11:18:51.634Z,39.24
2019-04-21T11:19:50.696Z,39.09
2019-04-21T11:20:51.168Z,39.86
2019-04-21T11:21:50.518Z,40.14
2019-04-21T11:22:51.394Z,40.06
2019-04-21T11:23:50.471Z,40.02
2019-04-21T11:24:51.117Z,40.38
2019-04-21T11:25:51.632Z,40.73
2019-04-21T11:26:51.870Z,40.27
2019-04-21T11:27:51.176Z,40.65
2019-04-21T11:28:50.597Z,39.71
2019-04-21T11:29:51.596Z,39.17
2019-04-21T11:30:50.994Z,38.39
2019-04-21T11:31:51.340Z,38.92
2019-04-21T11:32:51.109Z,39.81
2019-04-21T11:33:51.220Z,40.30
2019-04-21T11:34:51.407Z,40.30
2019-04-21T11:35:51.233Z,40.16
2019-04-21T11:36:50.279Z,40.20
2019-04-21T11:37:50.333Z,40.63
2019-04-21T11:39:06.097Z,40.72
2019-04-21T11:39:57.310Z,40.96
2019-04-21T11:40:50.143Z,40.40
2019-04-21T11:41:50.114Z,38.68
2019-04-21T11:42:51.448Z,38.57
2019-04-21T11:43:50.836Z,39.09
2019-04-21T11:44:51.507Z,39.77
2019-04-21T11:45:50.539Z,39.62
2019-04-21T11:46:50.136Z,39.92
2019-04-21T11:47:50.214Z,40.18
2019-04-21T11:48:50.443Z,40.84
2019-04-21T11:49:49.970Z,40.59
2019-04-21T11:50:50.952Z,40.15
2019-04-21T11:51:51.058Z,38.76
2019-04-21T11:52:49.909Z,38.48
2019-04-21T11:53:50.748Z,37.94
2019-04-21T11:54:50.934Z,37.80
2019-04-21T11:55:51.818Z,38.62
2019-04-21T11:56:50.664Z,39.11
2019-04-21T11:57:51.351Z,39.60
2019-04-21T11:58:50.001Z,39.06
2019-04-21T11:59:49.778Z,39.40
2019-04-21T12:00:50.801Z,39.60
2019-04-21T12:01:49.857Z,39.67
2019-04-21T12:02:49.739Z,40.15
2019-04-21T12:03:49.729Z,40.72
2019-04-21T12:04:49.677Z,40.80
2019-04-21T12:05:51.097Z,41.18
2019-04-21T12:06:51.155Z,41.14
2019-04-21T12:07:49.626Z,41.72
2019-04-21T12:08:52.607Z,42.20
2019-04-21T12:09:49.592Z,42.39
2019-04-21T12:10:49.598Z,42.50
2019-04-21T12:11:49.570Z,42.45
2019-04-21T12:12:50.881Z,41.97
2019-04-21T12:13:49.929Z,41.62
2019-04-21T12:14:50.272Z,42.19
2019-04-21T12:15:49.471Z,41.52
2019-04-21T12:16:50.804Z,42.19
2019-04-21T12:17:50.125Z,41.72
2019-04-21T12:18:49.415Z,42.25
2019-04-21T12:19:50.678Z,42.04
2019-04-21T12:20:49.378Z,42.07
2019-04-21T12:22:04.186Z,42.13
2019-04-21T12:22:49.469Z,42.55
2019-04-21T12:23:50.291Z,41.72
2019-04-21T12:24:49.295Z,41.60
2019-04-21T12:25:49.491Z,41.09
2019-04-21T12:26:49.743Z,41.56
2019-04-21T12:27:49.948Z,42.20
2019-04-21T12:28:50.119Z,42.20
2019-04-21T12:29:49.374Z,41.74
2019-04-21T12:30:49.662Z,42.01
2019-04-21T12:31:49.685Z,42.06
2019-04-21T12:32:49.173Z,41.82
2019-04-21T12:33:49.803Z,42.02
2019-04-21T12:34:51.720Z,42.10
2019-04-21T12:35:49.097Z,41.66
2019-04-21T12:36:49.076Z,41.74
2019-04-21T12:37:49.068Z,42.35
2019-04-21T12:38:55.802Z,42.10
2019-04-21T12:39:50.463Z,41.85
2019-04-21T12:40:48.994Z,41.59
2019-04-21T12:41:49.044Z,40.09
2019-04-21T12:42:48.962Z,40.33
2019-04-21T12:43:48.944Z,40.47
2019-04-21T12:44:49.498Z,39.70
2019-04-21T12:45:49.486Z,39.86
2019-04-21T12:46:49.795Z,40.30
2019-04-21T12:47:50.670Z,39.90
2019-04-21T12:48:49.684Z,39.41
2019-04-21T12:49:49.837Z,39.71
2019-04-21T12:50:49.929Z,40.16
2019-04-21T12:51:48.787Z,40.81
2019-04-21T12:52:49.622Z,40.78
2019-04-21T12:53:49.861Z,41.15
2019-04-21T12:54:48.728Z,40.92
2019-04-21T12:55:49.916Z,41.22
2019-04-21T12:56:49.572Z,40.65
2019-04-21T12:57:49.551Z,40.20
2019-04-21T12:58:49.063Z,39.92
2019-04-21T12:59:48.776Z,40.63
2019-04-21T13:00:49.599Z,40.46
2019-04-21T13:01:48.682Z,40.63
2019-04-21T13:02:49.751Z,38.95
2019-04-21T13:03:49.938Z,38.74
2019-04-21T13:04:49.743Z,38.11
2019-04-21T13:05:49.567Z,39.18
2019-04-21T13:06:49.775Z,39.37
2019-04-21T13:07:49.176Z,40.21
2019-04-21T13:08:55.618Z,40.75
2019-04-21T13:09:48.536Z,40.75
2019-04-21T13:10:48.576Z,40.90
2019-04-21T13:11:49.170Z,40.54
2019-04-21T13:12:48.369Z,41.33
2019-04-21T13:13:48.350Z,40.44
2019-04-21T13:14:49.545Z,40.73
2019-04-21T13:15:49.412Z,40.91
2019-04-21T13:16:49.583Z,40.88
2019-04-21T13:17:48.278Z,41.62
2019-04-21T13:18:49.236Z,42.06
2019-04-21T13:19:49.412Z,41.36
2019-04-21T13:20:48.522Z,41.04
2019-04-21T13:21:48.208Z,39.21
2019-04-21T13:22:48.255Z,40.44
2019-04-21T13:23:49.135Z,40.15
2019-04-21T13:24:49.545Z,40.30
2019-04-21T13:25:48.112Z,39.90
2019-04-21T13:26:53.613Z,40.63
2019-04-21T13:27:49.231Z,39.99
2019-04-21T13:28:48.135Z,40.14
2019-04-21T13:29:48.274Z,39.55
2019-04-21T13:30:48.591Z,39.60
2019-04-21T13:31:48.250Z,39.00
2019-04-21T13:32:49.259Z,39.41
2019-04-21T13:33:48.147Z,39.19
2019-04-21T13:34:47.935Z,39.30
2019-04-21T13:35:48.864Z,39.63
2019-04-21T13:36:47.892Z,40.41
2019-04-21T13:37:50.499Z,40.61
2019-04-21T13:39:23.206Z,40.54
2019-04-21T13:40:09.557Z,40.33
2019-04-21T13:41:03.761Z,39.60
2019-04-21T13:42:00.266Z,40.24
2019-04-21T13:42:52.270Z,39.56
2019-04-21T13:43:47.753Z,40.08
2019-04-21T13:44:48.813Z,40.63
2019-04-21T13:45:47.837Z,39.63
2019-04-21T13:46:49.022Z,38.80
2019-04-21T13:47:48.538Z,38.45
2019-04-21T13:48:48.393Z,39.00
2019-04-21T13:49:47.731Z,36.99
2019-04-21T13:50:48.997Z,36.42
2019-04-21T13:51:48.037Z,35.29
2019-04-21T13:52:48.868Z,35.11
2019-04-21T13:53:47.551Z,34.16
2019-04-21T13:54:47.530Z,34.01
2019-04-21T13:55:48.657Z,33.47
2019-04-21T13:56:47.493Z,32.75
2019-04-21T13:57:48.252Z,32.36
2019-04-21T13:58:48.397Z,32.03
2019-04-21T13:59:49.419Z,31.65
2019-04-21T14:00:47.738Z,31.25
2019-04-21T14:01:47.789Z,31.10
2019-04-21T14:02:48.891Z,30.34
2019-04-21T14:03:47.475Z,30.08
2019-04-21T14:04:47.383Z,29.78
2019-04-21T14:05:48.540Z,29.72
2019-04-21T14:06:48.074Z,29.45
2019-04-21T14:07:48.146Z,29.57
2019-04-21T14:08:48.780Z,29.38
2019-04-21T14:09:55.285Z,28.89
2019-04-21T14:10:47.341Z,28.79
2019-04-21T14:11:47.455Z,28.81
2019-04-21T14:12:48.774Z,28.86
2019-04-21T14:13:48.245Z,28.59
2019-04-21T14:14:48.329Z,28.66
2019-04-21T14:15:49.755Z,28.62
2019-04-21T14:16:47.962Z,28.63
2019-04-21T14:17:47.035Z,28.59
2019-04-21T14:18:47.380Z,28.62
2019-04-21T14:19:46.992Z,28.51
2019-04-21T14:20:46.985Z,28.33
2019-04-21T14:21:49.486Z,28.17
2019-04-21T14:22:46.922Z,28.01
2019-04-21T14:23:48.967Z,27.95
2019-04-21T14:24:48.022Z,27.87
2019-04-21T14:25:47.923Z,27.78
2019-04-21T14:26:47.891Z,27.74
2019-04-21T14:27:49.051Z,27.73
2019-04-21T14:28:47.231Z,27.78
2019-04-21T14:29:46.753Z,27.59
2019-04-21T14:30:48.213Z,27.48
2019-04-21T14:31:46.699Z,27.42
2019-04-21T14:32:47.636Z,27.30
2019-04-21T14:33:47.897Z,27.20
2019-04-21T14:34:48.823Z,26.92